SLAYR40 KNGU-KISO
Flight info
| Callsign | SLAYR40 |
|---|---|
| Flight time | 1h 8m |
| Altitude | 3999 |
| Route | KNGU DCT VEGHE T303 ZAGGY V472 ISO DCT KISO |
| Aircraft | H60/L-VD/C |
Departure
| Time | 2026-05-06 21:11 |
|---|---|
| Airport | Norfolk Naval Station (Chambers Field) (KNGU) |
Arrival
| Time | 2026-05-06 22:19 |
|---|---|
| Airport | Kinston Regional Jetport At Stallings Field (KISO) |
| Time | Latitude | Longitude | Altitude | Speed | Heading |
|---|---|---|---|---|---|
| 2026-05-06 20:56 | 36.94818 | -76.28074 | 20 ft | 0 kts | 162° |
| 2026-05-06 21:08 | 36.94816 | -76.28073 | 20 ft | 1 kts | 161° |
| 2026-05-06 21:09 | 36.94791 | -76.28086 | 21 ft | 10 kts | 244° |
| 2026-05-06 21:09 | 36.94782 | -76.28112 | 21 ft | 0 kts | 249° |
| 2026-05-06 21:10 | 36.94781 | -76.28115 | 28 ft | 1 kts | 245° |
| 2026-05-06 21:10 | 36.94733 | -76.28205 | 98 ft | 27 kts | 235° |
| 2026-05-06 21:10 | 36.94472 | -76.28465 | 319 ft | 74 kts | 220° |
| 2026-05-06 21:10 | 36.93884 | -76.28793 | 525 ft | 107 kts | 205° |
| 2026-05-06 21:11 | 36.93150 | -76.29203 | 613 ft | 120 kts | 198° |
| 2026-05-06 21:11 | 36.92328 | -76.29427 | 770 ft | 121 kts | 192° |
| 2026-05-06 21:11 | 36.91497 | -76.29430 | 1101 ft | 117 kts | 188° |
| 2026-05-06 21:11 | 36.90708 | -76.29359 | 1479 ft | 111 kts | 186° |
| 2026-05-06 21:12 | 36.89929 | -76.29308 | 1684 ft | 114 kts | 187° |
| 2026-05-06 21:12 | 36.89119 | -76.29295 | 1775 ft | 117 kts | 187° |
| 2026-05-06 21:12 | 36.88299 | -76.29326 | 1774 ft | 119 kts | 192° |
| 2026-05-06 21:12 | 36.87481 | -76.29462 | 2006 ft | 115 kts | 196° |
| 2026-05-06 21:13 | 36.86728 | -76.29622 | 2400 ft | 108 kts | 197° |
| 2026-05-06 21:13 | 36.85974 | -76.29778 | 2616 ft | 113 kts | 197° |
| 2026-05-06 21:13 | 36.85173 | -76.29907 | 2746 ft | 118 kts | 193° |
| 2026-05-06 21:13 | 36.84357 | -76.29950 | 3089 ft | 116 kts | 188° |
| 2026-05-06 21:14 | 36.83565 | -76.29866 | 3438 ft | 112 kts | 186° |
| 2026-05-06 21:14 | 36.82804 | -76.29850 | 3919 ft | 107 kts | 192° |
| 2026-05-06 21:14 | 36.82047 | -76.29862 | 3887 ft | 110 kts | 192° |
| 2026-05-06 21:14 | 36.81282 | -76.29873 | 3940 ft | 112 kts | 192° |
| 2026-05-06 21:15 | 36.80516 | -76.29883 | 3958 ft | 110 kts | 192° |
| 2026-05-06 21:15 | 36.79751 | -76.29896 | 3989 ft | 111 kts | 192° |
| 2026-05-06 21:15 | 36.78984 | -76.29899 | 3991 ft | 109 kts | 192° |
| 2026-05-06 21:15 | 36.78262 | -76.30086 | 3983 ft | 109 kts | 211° |
| 2026-05-06 21:16 | 36.77661 | -76.30669 | 3993 ft | 104 kts | 224° |
| 2026-05-06 21:16 | 36.77208 | -76.31301 | 3986 ft | 103 kts | 230° |
| 2026-05-06 21:16 | 36.76760 | -76.31956 | 3986 ft | 100 kts | 230° |
| 2026-05-06 21:16 | 36.76293 | -76.32624 | 3987 ft | 102 kts | 230° |
| 2026-05-06 21:17 | 36.75822 | -76.33276 | 3976 ft | 101 kts | 230° |
| 2026-05-06 21:17 | 36.75352 | -76.33920 | 3977 ft | 101 kts | 230° |
| 2026-05-06 21:17 | 36.74881 | -76.34565 | 3977 ft | 100 kts | 230° |
| 2026-05-06 21:17 | 36.74427 | -76.35197 | 3977 ft | 98 kts | 230° |
| 2026-05-06 21:18 | 36.73975 | -76.35850 | 3977 ft | 101 kts | 230° |
| 2026-05-06 21:18 | 36.73517 | -76.36520 | 3977 ft | 102 kts | 230° |
| 2026-05-06 21:18 | 36.73058 | -76.37189 | 3978 ft | 102 kts | 230° |
| 2026-05-06 21:18 | 36.72595 | -76.37859 | 3978 ft | 101 kts | 230° |
| 2026-05-06 21:19 | 36.72130 | -76.38520 | 3977 ft | 100 kts | 230° |
| 2026-05-06 21:19 | 36.71673 | -76.39167 | 3976 ft | 100 kts | 230° |
| 2026-05-06 21:19 | 36.71219 | -76.39821 | 3977 ft | 101 kts | 230° |
| 2026-05-06 21:19 | 36.70766 | -76.40472 | 3977 ft | 99 kts | 230° |
| 2026-05-06 21:20 | 36.70308 | -76.41124 | 3979 ft | 102 kts | 230° |
| 2026-05-06 21:20 | 36.69833 | -76.41780 | 3980 ft | 102 kts | 230° |
| 2026-05-06 21:20 | 36.69392 | -76.42489 | 3974 ft | 108 kts | 238° |
| 2026-05-06 21:20 | 36.69052 | -76.43285 | 3996 ft | 100 kts | 239° |
| 2026-05-06 21:21 | 36.68720 | -76.44065 | 3986 ft | 103 kts | 239° |
| 2026-05-06 21:21 | 36.68381 | -76.44851 | 3986 ft | 104 kts | 239° |
| 2026-05-06 21:21 | 36.68032 | -76.45629 | 3988 ft | 104 kts | 239° |
| 2026-05-06 21:21 | 36.67683 | -76.46409 | 3990 ft | 102 kts | 239° |
| 2026-05-06 21:22 | 36.67342 | -76.47179 | 3999 ft | 100 kts | 239° |
| 2026-05-06 21:22 | 36.67014 | -76.47955 | 3998 ft | 102 kts | 242° |
| 2026-05-06 21:22 | 36.66721 | -76.48769 | 3994 ft | 103 kts | 242° |
| 2026-05-06 21:22 | 36.66429 | -76.49572 | 3991 ft | 102 kts | 242° |
| 2026-05-06 21:23 | 36.66024 | -76.50346 | 3987 ft | 111 kts | 230° |
| 2026-05-06 21:23 | 36.65414 | -76.50955 | 3996 ft | 109 kts | 219° |
| 2026-05-06 21:23 | 36.64852 | -76.51430 | 4004 ft | 95 kts | 220° |
| 2026-05-06 21:23 | 36.64287 | -76.51938 | 4003 ft | 98 kts | 220° |
| 2026-05-06 21:24 | 36.63738 | -76.52425 | 4000 ft | 98 kts | 220° |
| 2026-05-06 21:24 | 36.63176 | -76.52919 | 3997 ft | 97 kts | 220° |
| 2026-05-06 21:24 | 36.62630 | -76.53410 | 3996 ft | 98 kts | 220° |
| 2026-05-06 21:24 | 36.62072 | -76.53901 | 3996 ft | 98 kts | 220° |
| 2026-05-06 21:25 | 36.61504 | -76.54393 | 3996 ft | 101 kts | 221° |
| 2026-05-06 21:25 | 36.60964 | -76.54905 | 3994 ft | 98 kts | 223° |
| 2026-05-06 21:25 | 36.60412 | -76.55410 | 3996 ft | 99 kts | 223° |
| 2026-05-06 21:25 | 36.59860 | -76.55916 | 3996 ft | 98 kts | 223° |
| 2026-05-06 21:26 | 36.59325 | -76.56416 | 3995 ft | 95 kts | 223° |
| 2026-05-06 21:26 | 36.58794 | -76.56922 | 3994 ft | 97 kts | 223° |
| 2026-05-06 21:26 | 36.58278 | -76.57469 | 4006 ft | 95 kts | 225° |
| 2026-05-06 21:26 | 36.57772 | -76.58017 | 4000 ft | 97 kts | 225° |
| 2026-05-06 21:27 | 36.57254 | -76.58566 | 4001 ft | 99 kts | 224° |
| 2026-05-06 21:27 | 36.56727 | -76.59104 | 3997 ft | 100 kts | 224° |
| 2026-05-06 21:27 | 36.56192 | -76.59641 | 4014 ft | 96 kts | 224° |
| 2026-05-06 21:27 | 36.55670 | -76.60162 | 4013 ft | 96 kts | 224° |
| 2026-05-06 21:28 | 36.55144 | -76.60685 | 4014 ft | 97 kts | 224° |
| 2026-05-06 21:28 | 36.54615 | -76.61210 | 4014 ft | 97 kts | 224° |
| 2026-05-06 21:28 | 36.54084 | -76.61732 | 4014 ft | 98 kts | 224° |
| 2026-05-06 21:28 | 36.53687 | -76.62134 | 4013 ft | 98 kts | 224° |
| 2026-05-06 21:29 | 36.53157 | -76.62676 | 4015 ft | 99 kts | 224° |
| 2026-05-06 21:29 | 36.52625 | -76.63205 | 4013 ft | 98 kts | 224° |
| 2026-05-06 21:29 | 36.52095 | -76.63734 | 4017 ft | 98 kts | 224° |
| 2026-05-06 21:29 | 36.51561 | -76.64266 | 4018 ft | 98 kts | 224° |
| 2026-05-06 21:30 | 36.51024 | -76.64800 | 4016 ft | 99 kts | 224° |
| 2026-05-06 21:30 | 36.50490 | -76.65336 | 4017 ft | 99 kts | 224° |
| 2026-05-06 21:30 | 36.49955 | -76.65873 | 4016 ft | 98 kts | 224° |
| 2026-05-06 21:30 | 36.49423 | -76.66408 | 4016 ft | 98 kts | 224° |
| 2026-05-06 21:31 | 36.48891 | -76.66945 | 4013 ft | 98 kts | 224° |
| 2026-05-06 21:31 | 36.48361 | -76.67484 | 4009 ft | 99 kts | 224° |
| 2026-05-06 21:31 | 36.47842 | -76.68082 | 4017 ft | 102 kts | 224° |
| 2026-05-06 21:31 | 36.47331 | -76.68682 | 4017 ft | 101 kts | 224° |
| 2026-05-06 21:32 | 36.46821 | -76.69287 | 4017 ft | 102 kts | 224° |
| 2026-05-06 21:32 | 36.45804 | -76.70499 | 4017 ft | 104 kts | 224° |
| 2026-05-06 21:32 | 36.45275 | -76.71116 | 4014 ft | 105 kts | 224° |
| 2026-05-06 21:33 | 36.44745 | -76.71737 | 4016 ft | 105 kts | 224° |
| 2026-05-06 21:33 | 36.44214 | -76.72342 | 4019 ft | 103 kts | 224° |
| 2026-05-06 21:33 | 36.43695 | -76.72938 | 4016 ft | 101 kts | 224° |
| 2026-05-06 21:33 | 36.43186 | -76.73532 | 4019 ft | 101 kts | 224° |
| 2026-05-06 21:34 | 36.42673 | -76.74129 | 4014 ft | 101 kts | 224° |
| 2026-05-06 21:34 | 36.42161 | -76.74739 | 4014 ft | 104 kts | 224° |
| 2026-05-06 21:34 | 36.41644 | -76.75362 | 4017 ft | 104 kts | 224° |
| 2026-05-06 21:34 | 36.41119 | -76.75985 | 4015 ft | 103 kts | 224° |
| 2026-05-06 21:35 | 36.40607 | -76.76603 | 4017 ft | 101 kts | 224° |
| 2026-05-06 21:35 | 36.40097 | -76.77201 | 4015 ft | 101 kts | 224° |
| 2026-05-06 21:35 | 36.39583 | -76.77799 | 4012 ft | 102 kts | 224° |
| 2026-05-06 21:35 | 36.39243 | -76.78197 | 4016 ft | 101 kts | 224° |
| 2026-05-06 21:36 | 36.38732 | -76.78800 | 4020 ft | 101 kts | 224° |
| 2026-05-06 21:36 | 36.38230 | -76.79410 | 4021 ft | 102 kts | 224° |
| 2026-05-06 21:36 | 36.37567 | -76.80225 | 4020 ft | 101 kts | 224° |
| 2026-05-06 21:36 | 36.37069 | -76.80826 | 4016 ft | 100 kts | 224° |
| 2026-05-06 21:37 | 36.36737 | -76.81226 | 4015 ft | 101 kts | 224° |
| 2026-05-06 21:37 | 36.36228 | -76.81833 | 4017 ft | 102 kts | 224° |
| 2026-05-06 21:37 | 36.35717 | -76.82440 | 4015 ft | 101 kts | 224° |
| 2026-05-06 21:37 | 36.35207 | -76.83042 | 4017 ft | 102 kts | 224° |
| 2026-05-06 21:38 | 36.34693 | -76.83637 | 4019 ft | 99 kts | 224° |
| 2026-05-06 21:38 | 36.34201 | -76.84226 | 4019 ft | 99 kts | 224° |
| 2026-05-06 21:38 | 36.33709 | -76.84819 | 4022 ft | 97 kts | 224° |
| 2026-05-06 21:38 | 36.33213 | -76.85404 | 4019 ft | 99 kts | 224° |
| 2026-05-06 21:39 | 36.32713 | -76.86004 | 4018 ft | 101 kts | 224° |
| 2026-05-06 21:39 | 36.32201 | -76.86605 | 4018 ft | 102 kts | 224° |
| 2026-05-06 21:39 | 36.31674 | -76.87162 | 4016 ft | 100 kts | 224° |
| 2026-05-06 21:39 | 36.31148 | -76.87714 | 4006 ft | 99 kts | 224° |
| 2026-05-06 21:40 | 36.30628 | -76.88267 | 4007 ft | 99 kts | 224° |
| 2026-05-06 21:40 | 36.30099 | -76.88828 | 4006 ft | 99 kts | 224° |
| 2026-05-06 21:40 | 36.29583 | -76.89372 | 4006 ft | 98 kts | 224° |
| 2026-05-06 21:40 | 36.29062 | -76.89925 | 4005 ft | 99 kts | 224° |
| 2026-05-06 21:41 | 36.28531 | -76.90479 | 4006 ft | 100 kts | 224° |
| 2026-05-06 21:41 | 36.27996 | -76.91028 | 4005 ft | 101 kts | 224° |
| 2026-05-06 21:41 | 36.27461 | -76.91582 | 4004 ft | 99 kts | 224° |
| 2026-05-06 21:41 | 36.26930 | -76.92132 | 4006 ft | 100 kts | 224° |
| 2026-05-06 21:42 | 36.26411 | -76.92717 | 4006 ft | 100 kts | 224° |
| 2026-05-06 21:42 | 36.25892 | -76.93298 | 4004 ft | 100 kts | 224° |
| 2026-05-06 21:42 | 36.25333 | -76.93830 | 4019 ft | 99 kts | 220° |
| 2026-05-06 21:42 | 36.24761 | -76.94346 | 4012 ft | 102 kts | 220° |
| 2026-05-06 21:43 | 36.24186 | -76.94864 | 4008 ft | 102 kts | 220° |
| 2026-05-06 21:43 | 36.23617 | -76.95379 | 4005 ft | 103 kts | 220° |
| 2026-05-06 21:43 | 36.23042 | -76.95894 | 4001 ft | 102 kts | 220° |
| 2026-05-06 21:43 | 36.22481 | -76.96403 | 4004 ft | 100 kts | 220° |
| 2026-05-06 21:44 | 36.21916 | -76.96914 | 4004 ft | 101 kts | 220° |
| 2026-05-06 21:44 | 36.21357 | -76.97424 | 4002 ft | 100 kts | 220° |
| 2026-05-06 21:44 | 36.20796 | -76.97944 | 4002 ft | 102 kts | 220° |
| 2026-05-06 21:44 | 36.20225 | -76.98466 | 4003 ft | 102 kts | 220° |
| 2026-05-06 21:45 | 36.19660 | -76.98987 | 4002 ft | 102 kts | 220° |
| 2026-05-06 21:45 | 36.19087 | -76.99509 | 4002 ft | 102 kts | 220° |
| 2026-05-06 21:45 | 36.18513 | -77.00011 | 4004 ft | 101 kts | 220° |
| 2026-05-06 21:45 | 36.17934 | -77.00520 | 4003 ft | 102 kts | 220° |
| 2026-05-06 21:46 | 36.17359 | -77.01023 | 4002 ft | 101 kts | 220° |
| 2026-05-06 21:46 | 36.16660 | -77.01458 | 3990 ft | 121 kts | 208° |
| 2026-05-06 21:46 | 36.15968 | -77.01789 | 4010 ft | 103 kts | 208° |
| 2026-05-06 21:46 | 36.15286 | -77.02115 | 4004 ft | 107 kts | 209° |
| 2026-05-06 21:47 | 36.14620 | -77.02474 | 4002 ft | 106 kts | 211° |
| 2026-05-06 21:47 | 36.13961 | -77.02842 | 4003 ft | 106 kts | 211° |
| 2026-05-06 21:47 | 36.13291 | -77.03223 | 4005 ft | 106 kts | 211° |
| 2026-05-06 21:47 | 36.12632 | -77.03602 | 4006 ft | 103 kts | 211° |
| 2026-05-06 21:48 | 36.11984 | -77.03979 | 4006 ft | 103 kts | 211° |
| 2026-05-06 21:48 | 36.11336 | -77.04357 | 4009 ft | 102 kts | 211° |
| 2026-05-06 21:48 | 36.10688 | -77.04727 | 4008 ft | 103 kts | 211° |
| 2026-05-06 21:48 | 36.10036 | -77.05101 | 4007 ft | 105 kts | 211° |
| 2026-05-06 21:49 | 36.09370 | -77.05492 | 4007 ft | 105 kts | 211° |
| 2026-05-06 21:49 | 36.08713 | -77.05888 | 4006 ft | 106 kts | 211° |
| 2026-05-06 21:49 | 36.08080 | -77.06336 | 4015 ft | 102 kts | 214° |
| 2026-05-06 21:49 | 36.07455 | -77.06767 | 4019 ft | 102 kts | 214° |
| 2026-05-06 21:50 | 36.06828 | -77.07188 | 4012 ft | 103 kts | 214° |
| 2026-05-06 21:50 | 36.06200 | -77.07608 | 4013 ft | 102 kts | 214° |
| 2026-05-06 21:50 | 36.05582 | -77.08024 | 4010 ft | 103 kts | 214° |
| 2026-05-06 21:50 | 36.04956 | -77.08462 | 4010 ft | 103 kts | 214° |
| 2026-05-06 21:51 | 36.04331 | -77.08916 | 4020 ft | 105 kts | 214° |
| 2026-05-06 21:51 | 36.03714 | -77.09386 | 4014 ft | 103 kts | 214° |
| 2026-05-06 21:51 | 36.03102 | -77.09857 | 4012 ft | 104 kts | 214° |
| 2026-05-06 21:51 | 36.02488 | -77.10328 | 4011 ft | 102 kts | 214° |
| 2026-05-06 21:52 | 36.01883 | -77.10798 | 4010 ft | 103 kts | 214° |
| 2026-05-06 21:52 | 36.01263 | -77.11270 | 4009 ft | 105 kts | 214° |
| 2026-05-06 21:52 | 36.00642 | -77.11739 | 4010 ft | 105 kts | 214° |
| 2026-05-06 21:52 | 36.00015 | -77.12210 | 4009 ft | 105 kts | 214° |
| 2026-05-06 21:53 | 35.99409 | -77.12672 | 4009 ft | 102 kts | 214° |
| 2026-05-06 21:53 | 35.98805 | -77.13139 | 4008 ft | 103 kts | 214° |
| 2026-05-06 21:53 | 35.98199 | -77.13596 | 4008 ft | 102 kts | 214° |
| 2026-05-06 21:53 | 35.97592 | -77.14057 | 4008 ft | 103 kts | 214° |
| 2026-05-06 21:54 | 35.96969 | -77.14508 | 4007 ft | 104 kts | 214° |
| 2026-05-06 21:54 | 35.96351 | -77.14975 | 4005 ft | 104 kts | 214° |
| 2026-05-06 21:54 | 35.95728 | -77.15447 | 4005 ft | 104 kts | 214° |
| 2026-05-06 21:54 | 35.95122 | -77.15921 | 4005 ft | 103 kts | 214° |
| 2026-05-06 21:55 | 35.94506 | -77.16385 | 4005 ft | 104 kts | 214° |
| 2026-05-06 21:55 | 35.93884 | -77.16839 | 4005 ft | 103 kts | 214° |
| 2026-05-06 21:55 | 35.93264 | -77.17294 | 4006 ft | 104 kts | 214° |
| 2026-05-06 21:55 | 35.92645 | -77.17745 | 4005 ft | 102 kts | 214° |
| 2026-05-06 21:56 | 35.92040 | -77.18219 | 4005 ft | 103 kts | 214° |
| 2026-05-06 21:56 | 35.91432 | -77.18690 | 4005 ft | 104 kts | 214° |
| 2026-05-06 21:56 | 35.90822 | -77.19159 | 4004 ft | 103 kts | 214° |
| 2026-05-06 21:56 | 35.90209 | -77.19629 | 4004 ft | 104 kts | 214° |
| 2026-05-06 21:57 | 35.89587 | -77.20082 | 4004 ft | 103 kts | 214° |
| 2026-05-06 21:57 | 35.88964 | -77.20551 | 4004 ft | 105 kts | 214° |
| 2026-05-06 21:57 | 35.88340 | -77.21024 | 4009 ft | 105 kts | 214° |
| 2026-05-06 21:57 | 35.87736 | -77.21490 | 4005 ft | 103 kts | 214° |
| 2026-05-06 21:58 | 35.87127 | -77.21962 | 4007 ft | 101 kts | 214° |
| 2026-05-06 21:58 | 35.86521 | -77.22412 | 4006 ft | 101 kts | 214° |
| 2026-05-06 21:58 | 35.85910 | -77.22867 | 4018 ft | 104 kts | 214° |
| 2026-05-06 21:58 | 35.85274 | -77.23303 | 4019 ft | 104 kts | 214° |
| 2026-05-06 21:59 | 35.84635 | -77.23747 | 4019 ft | 106 kts | 214° |
| 2026-05-06 21:59 | 35.83996 | -77.24197 | 4017 ft | 107 kts | 214° |
| 2026-05-06 21:59 | 35.83353 | -77.24650 | 4017 ft | 107 kts | 214° |
| 2026-05-06 21:59 | 35.82710 | -77.25095 | 4015 ft | 105 kts | 214° |
| 2026-05-06 22:00 | 35.82072 | -77.25531 | 4017 ft | 104 kts | 214° |
| 2026-05-06 22:00 | 35.81400 | -77.25956 | 4004 ft | 112 kts | 210° |
| 2026-05-06 22:00 | 35.80715 | -77.26327 | 4008 ft | 109 kts | 210° |
| 2026-05-06 22:00 | 35.80024 | -77.26709 | 4012 ft | 109 kts | 210° |
| 2026-05-06 22:01 | 35.79335 | -77.27095 | 4013 ft | 109 kts | 210° |
| 2026-05-06 22:01 | 35.78657 | -77.27483 | 4016 ft | 106 kts | 210° |
| 2026-05-06 22:01 | 35.77987 | -77.27870 | 4012 ft | 107 kts | 212° |
| 2026-05-06 22:01 | 35.77323 | -77.28271 | 4012 ft | 107 kts | 212° |
| 2026-05-06 22:02 | 35.76656 | -77.28675 | 4010 ft | 107 kts | 212° |
| 2026-05-06 22:02 | 35.75985 | -77.29073 | 4008 ft | 108 kts | 212° |
| 2026-05-06 22:02 | 35.75316 | -77.29470 | 4004 ft | 110 kts | 212° |
| 2026-05-06 22:02 | 35.74647 | -77.29878 | 4001 ft | 110 kts | 212° |
| 2026-05-06 22:03 | 35.73971 | -77.30301 | 4006 ft | 110 kts | 212° |
| 2026-05-06 22:03 | 35.73299 | -77.30727 | 4006 ft | 107 kts | 212° |
| 2026-05-06 22:03 | 35.72633 | -77.31150 | 4006 ft | 107 kts | 213° |
| 2026-05-06 22:03 | 35.71973 | -77.31557 | 4005 ft | 106 kts | 212° |
| 2026-05-06 22:04 | 35.71314 | -77.31978 | 4011 ft | 108 kts | 213° |
| 2026-05-06 22:04 | 35.70648 | -77.32398 | 4014 ft | 106 kts | 213° |
| 2026-05-06 22:04 | 35.69996 | -77.32827 | 4009 ft | 107 kts | 213° |
| 2026-05-06 22:04 | 35.69344 | -77.33262 | 4004 ft | 106 kts | 213° |
| 2026-05-06 22:05 | 35.68694 | -77.33696 | 4004 ft | 108 kts | 213° |
| 2026-05-06 22:05 | 35.68018 | -77.34095 | 4001 ft | 109 kts | 211° |
| 2026-05-06 22:05 | 35.67329 | -77.34485 | 4003 ft | 109 kts | 211° |
| 2026-05-06 22:05 | 35.66642 | -77.34881 | 4004 ft | 108 kts | 211° |
| 2026-05-06 22:06 | 35.65982 | -77.35287 | 4004 ft | 105 kts | 214° |
| 2026-05-06 22:06 | 35.65341 | -77.35720 | 4006 ft | 107 kts | 214° |
| 2026-05-06 22:06 | 35.64696 | -77.36175 | 4001 ft | 106 kts | 216° |
| 2026-05-06 22:06 | 35.64055 | -77.36644 | 4013 ft | 107 kts | 217° |
| 2026-05-06 22:07 | 35.63424 | -77.37124 | 4014 ft | 106 kts | 218° |
| 2026-05-06 22:07 | 35.62806 | -77.37611 | 4013 ft | 106 kts | 218° |
| 2026-05-06 22:07 | 35.62188 | -77.38117 | 4015 ft | 107 kts | 218° |
| 2026-05-06 22:07 | 35.61571 | -77.38643 | 4013 ft | 106 kts | 219° |
| 2026-05-06 22:08 | 35.60971 | -77.39172 | 4015 ft | 105 kts | 219° |
| 2026-05-06 22:08 | 35.60381 | -77.39708 | 4014 ft | 105 kts | 221° |
| 2026-05-06 22:08 | 35.59803 | -77.40245 | 4015 ft | 104 kts | 221° |
| 2026-05-06 22:08 | 35.59241 | -77.40790 | 4014 ft | 106 kts | 223° |
| 2026-05-06 22:09 | 35.58679 | -77.41388 | 4017 ft | 108 kts | 223° |
| 2026-05-06 22:09 | 35.58090 | -77.41999 | 4011 ft | 110 kts | 218° |
| 2026-05-06 22:09 | 35.57512 | -77.42575 | 4009 ft | 106 kts | 219° |
| 2026-05-06 22:09 | 35.56945 | -77.43169 | 4011 ft | 108 kts | 220° |
| 2026-05-06 22:10 | 35.56372 | -77.43757 | 4015 ft | 109 kts | 221° |
| 2026-05-06 22:10 | 35.55787 | -77.44352 | 4013 ft | 109 kts | 219° |
| 2026-05-06 22:10 | 35.55196 | -77.44941 | 4017 ft | 110 kts | 222° |
| 2026-05-06 22:10 | 35.54617 | -77.45481 | 4013 ft | 99 kts | 214° |
| 2026-05-06 22:11 | 35.53971 | -77.45934 | 4018 ft | 106 kts | 213° |
| 2026-05-06 22:11 | 35.53326 | -77.46404 | 4017 ft | 108 kts | 213° |
| 2026-05-06 22:11 | 35.52688 | -77.46880 | 4018 ft | 109 kts | 213° |
| 2026-05-06 22:11 | 35.52039 | -77.47361 | 4018 ft | 109 kts | 213° |
| 2026-05-06 22:12 | 35.51393 | -77.47840 | 4020 ft | 109 kts | 213° |
| 2026-05-06 22:12 | 35.50744 | -77.48316 | 4019 ft | 108 kts | 213° |
| 2026-05-06 22:12 | 35.50090 | -77.48781 | 4019 ft | 109 kts | 213° |
| 2026-05-06 22:12 | 35.49431 | -77.49243 | 4022 ft | 109 kts | 213° |
| 2026-05-06 22:13 | 35.48773 | -77.49705 | 4020 ft | 110 kts | 213° |
| 2026-05-06 22:13 | 35.48117 | -77.50172 | 4033 ft | 109 kts | 213° |
| 2026-05-06 22:13 | 35.47459 | -77.50639 | 4034 ft | 109 kts | 213° |
| 2026-05-06 22:13 | 35.46802 | -77.51100 | 4007 ft | 108 kts | 213° |
| 2026-05-06 22:14 | 35.46156 | -77.51564 | 3911 ft | 108 kts | 212° |
| 2026-05-06 22:14 | 35.45476 | -77.51978 | 3621 ft | 108 kts | 208° |
| 2026-05-06 22:14 | 35.44811 | -77.52331 | 3426 ft | 102 kts | 207° |
| 2026-05-06 22:14 | 35.44160 | -77.52658 | 3226 ft | 100 kts | 209° |
| 2026-05-06 22:15 | 35.43516 | -77.53012 | 3011 ft | 101 kts | 207° |
| 2026-05-06 22:15 | 35.42866 | -77.53368 | 2833 ft | 104 kts | 208° |
| 2026-05-06 22:15 | 35.42184 | -77.53743 | 2574 ft | 110 kts | 207° |
| 2026-05-06 22:15 | 35.41473 | -77.54094 | 2196 ft | 110 kts | 206° |
| 2026-05-06 22:16 | 35.40787 | -77.54448 | 1877 ft | 104 kts | 207° |
| 2026-05-06 22:16 | 35.40143 | -77.54824 | 1616 ft | 100 kts | 210° |
| 2026-05-06 22:16 | 35.39561 | -77.55214 | 1513 ft | 90 kts | 213° |
| 2026-05-06 22:16 | 35.39040 | -77.55592 | 1373 ft | 84 kts | 213° |
| 2026-05-06 22:17 | 35.38537 | -77.55932 | 1126 ft | 81 kts | 212° |
| 2026-05-06 22:17 | 35.38046 | -77.56275 | 955 ft | 80 kts | 214° |
| 2026-05-06 22:17 | 35.37561 | -77.56587 | 863 ft | 78 kts | 211° |
| 2026-05-06 22:17 | 35.37062 | -77.56925 | 734 ft | 87 kts | 217° |
| 2026-05-06 22:18 | 35.36551 | -77.57354 | 630 ft | 90 kts | 220° |
| 2026-05-06 22:18 | 35.36057 | -77.57811 | 518 ft | 87 kts | 223° |
| 2026-05-06 22:18 | 35.35610 | -77.58277 | 517 ft | 82 kts | 227° |
| 2026-05-06 22:18 | 35.35194 | -77.58738 | 388 ft | 76 kts | 225° |
| 2026-05-06 22:19 | 35.34815 | -77.59137 | 353 ft | 69 kts | 223° |
| 2026-05-06 22:19 | 35.34500 | -77.59458 | 270 ft | 46 kts | 220° |
| 2026-05-06 22:19 | 35.34316 | -77.59656 | 196 ft | 28 kts | 218° |
| 2026-05-06 22:19 | 35.34163 | -77.59818 | 201 ft | 30 kts | 218° |
| 2026-05-06 22:20 | 35.34000 | -77.59991 | 189 ft | 34 kts | 218° |
| 2026-05-06 22:20 | 35.33797 | -77.60211 | 188 ft | 48 kts | 219° |
| 2026-05-06 22:20 | 35.33491 | -77.60528 | 172 ft | 62 kts | 223° |
| 2026-05-06 22:20 | 35.33172 | -77.60852 | 136 ft | 57 kts | 223° |
| 2026-05-06 22:21 | 35.32932 | -77.61100 | 123 ft | 33 kts | 223° |
| 2026-05-06 22:21 | 35.32788 | -77.61260 | 108 ft | 12 kts | 220° |
| 2026-05-06 22:21 | 35.32783 | -77.61265 | 97 ft | 0 kts | 219° |
| 2026-05-06 22:21 | 35.32766 | -77.61283 | 96 ft | 8 kts | 219° |
| 2026-05-06 22:22 | 35.32696 | -77.61358 | 96 ft | 19 kts | 221° |
| 2026-05-06 22:22 | 35.32621 | -77.61439 | 95 ft | 22 kts | 220° |
| 2026-05-06 22:22 | 35.32495 | -77.61572 | 96 ft | 25 kts | 221° |
| 2026-05-06 22:22 | 35.32356 | -77.61717 | 97 ft | 24 kts | 212° |
| 2026-05-06 22:23 | 35.32205 | -77.61724 | 97 ft | 20 kts | 187° |
| 2026-05-06 22:23 | 35.32107 | -77.61809 | 97 ft | 13 kts | 214° |
| 2026-05-06 22:23 | 35.32090 | -77.61751 | 96 ft | 10 kts | 71° |
| 2026-05-06 22:23 | 35.32098 | -77.61698 | 96 ft | 0 kts | 83° |